sensor_id;sensor_type;location;lat;lon;timestamp;P1;durP1;ratioP1;P2;durP2;ratioP2
10162;SDS011;5123;52.556;13.384;2023-07-29T00:02:17;10.23;;;9.13;;
10162;SDS011;5123;52.556;13.384;2023-07-29T00:04:51;10.67;;;9.40;;
10162;SDS011;5123;52.556;13.384;2023-07-29T00:07:24;13.43;;;9.93;;
10162;SDS011;5123;52.556;13.384;2023-07-29T00:09:57;11.93;;;9.93;;
10162;SDS011;5123;52.556;13.384;2023-07-29T00:12:30;10.37;;;9.23;;
10162;SDS011;5123;52.556;13.384;2023-07-29T00:15:03;16.90;;;10.17;;
10162;SDS011;5123;52.556;13.384;2023-07-29T00:17:36;11.27;;;9.37;;
10162;SDS011;5123;52.556;13.384;2023-07-29T00:20:10;12.57;;;10.33;;
10162;SDS011;5123;52.556;13.384;2023-07-29T00:22:43;12.00;;;10.00;;
10162;SDS011;5123;52.556;13.384;2023-07-29T00:25:15;11.30;;;10.07;;
10162;SDS011;5123;52.556;13.384;2023-07-29T00:27:49;12.60;;;10.77;;
10162;SDS011;5123;52.556;13.384;2023-07-29T00:30:21;11.53;;;10.00;;
10162;SDS011;5123;52.556;13.384;2023-07-29T00:32:54;12.83;;;11.00;;
10162;SDS011;5123;52.556;13.384;2023-07-29T00:35:28;11.80;;;10.50;;
10162;SDS011;5123;52.556;13.384;2023-07-29T00:38:01;12.47;;;10.93;;
10162;SDS011;5123;52.556;13.384;2023-07-29T00:40:35;12.80;;;11.10;;
10162;SDS011;5123;52.556;13.384;2023-07-29T00:43:10;11.23;;;10.13;;
10162;SDS011;5123;52.556;13.384;2023-07-29T00:45:45;15.27;;;10.43;;
10162;SDS011;5123;52.556;13.384;2023-07-29T00:48:19;12.80;;;10.40;;
10162;SDS011;5123;52.556;13.384;2023-07-29T00:50:53;10.47;;;9.47;;
10162;SDS011;5123;52.556;13.384;2023-07-29T00:53:26;11.90;;;10.60;;
10162;SDS011;5123;52.556;13.384;2023-07-29T00:56:00;11.53;;;10.33;;
10162;SDS011;5123;52.556;13.384;2023-07-29T00:58:33;11.50;;;10.30;;
10162;SDS011;5123;52.556;13.384;2023-07-29T01:01:09;12.03;;;10.13;;
10162;SDS011;5123;52.556;13.384;2023-07-29T01:03:44;13.20;;;10.57;;
10162;SDS011;5123;52.556;13.384;2023-07-29T01:06:21;12.17;;;10.90;;
10162;SDS011;5123;52.556;13.384;2023-07-29T01:08:58;15.90;;;11.13;;
10162;SDS011;5123;52.556;13.384;2023-07-29T01:11:35;11.83;;;10.63;;
10162;SDS011;5123;52.556;13.384;2023-07-29T01:14:13;12.83;;;10.80;;
10162;SDS011;5123;52.556;13.384;2023-07-29T01:16:51;14.73;;;10.67;;
10162;SDS011;5123;52.556;13.384;2023-07-29T01:19:34;13.23;;;10.57;;
10162;SDS011;5123;52.556;13.384;2023-07-29T01:22:17;13.47;;;10.97;;
10162;SDS011;5123;52.556;13.384;2023-07-29T01:24:53;11.27;;;10.13;;
10162;SDS011;5123;52.556;13.384;2023-07-29T01:27:25;10.73;;;9.47;;
10162;SDS011;5123;52.556;13.384;2023-07-29T01:29:58;13.10;;;10.73;;
10162;SDS011;5123;52.556;13.384;2023-07-29T01:32:33;11.40;;;10.30;;
10162;SDS011;5123;52.556;13.384;2023-07-29T01:35:11;13.97;;;11.57;;
10162;SDS011;5123;52.556;13.384;2023-07-29T01:37:47;13.50;;;10.90;;
10162;SDS011;5123;52.556;13.384;2023-07-29T01:40:25;13.60;;;11.03;;
10162;SDS011;5123;52.556;13.384;2023-07-29T01:43:02;14.93;;;10.90;;
10162;SDS011;5123;52.556;13.384;2023-07-29T01:45:35;13.40;;;11.93;;
10162;SDS011;5123;52.556;13.384;2023-07-29T01:48:09;11.87;;;10.67;;
10162;SDS011;5123;52.556;13.384;2023-07-29T01:50:42;12.67;;;11.37;;
10162;SDS011;5123;52.556;13.384;2023-07-29T01:53:18;13.00;;;10.50;;
10162;SDS011;5123;52.556;13.384;2023-07-29T01:55:52;12.57;;;11.10;;
10162;SDS011;5123;52.556;13.384;2023-07-29T01:58:27;12.77;;;11.03;;
10162;SDS011;5123;52.556;13.384;2023-07-29T02:00:59;11.80;;;9.97;;
10162;SDS011;5123;52.556;13.384;2023-07-29T02:03:35;12.97;;;10.73;;
10162;SDS011;5123;52.556;13.384;2023-07-29T02:06:07;12.90;;;10.93;;
10162;SDS011;5123;52.556;13.384;2023-07-29T02:08:43;11.00;;;9.87;;
10162;SDS011;5123;52.556;13.384;2023-07-29T02:11:17;14.20;;;10.70;;
10162;SDS011;5123;52.556;13.384;2023-07-29T02:13:51;14.60;;;11.20;;
10162;SDS011;5123;52.556;13.384;2023-07-29T02:16:24;11.47;;;10.37;;
10162;SDS011;5123;52.556;13.384;2023-07-29T02:18:57;11.97;;;10.67;;
10162;SDS011;5123;52.556;13.384;2023-07-29T02:21:29;12.90;;;10.43;;
10162;SDS011;5123;52.556;13.384;2023-07-29T02:24:05;13.73;;;11.10;;
10162;SDS011;5123;52.556;13.384;2023-07-29T02:26:40;11.10;;;9.87;;
10162;SDS011;5123;52.556;13.384;2023-07-29T02:29:13;11.33;;;10.20;;
10162;SDS011;5123;52.556;13.384;2023-07-29T02:31:46;13.27;;;11.13;;
10162;SDS011;5123;52.556;13.384;2023-07-29T02:34:18;12.53;;;11.00;;
10162;SDS011;5123;52.556;13.384;2023-07-29T02:36:51;11.70;;;10.50;;
10162;SDS011;5123;52.556;13.384;2023-07-29T02:39:24;11.67;;;9.90;;
10162;SDS011;5123;52.556;13.384;2023-07-29T02:41:58;10.50;;;9.50;;
10162;SDS011;5123;52.556;13.384;2023-07-29T02:44:31;12.53;;;9.97;;
10162;SDS011;5123;52.556;13.384;2023-07-29T02:47:04;13.40;;;10.57;;
10162;SDS011;5123;52.556;13.384;2023-07-29T02:49:36;11.07;;;9.93;;
10162;SDS011;5123;52.556;13.384;2023-07-29T02:52:09;10.70;;;9.67;;
10162;SDS011;5123;52.556;13.384;2023-07-29T02:54:42;11.87;;;10.30;;
10162;SDS011;5123;52.556;13.384;2023-07-29T02:57:16;12.30;;;9.90;;
10162;SDS011;5123;52.556;13.384;2023-07-29T02:59:52;11.60;;;10.40;;
10162;SDS011;5123;52.556;13.384;2023-07-29T03:02:31;11.33;;;10.13;;
10162;SDS011;5123;52.556;13.384;2023-07-29T03:05:05;12.30;;;11.00;;
10162;SDS011;5123;52.556;13.384;2023-07-29T03:07:37;12.27;;;10.97;;
10162;SDS011;5123;52.556;13.384;2023-07-29T03:10:10;13.10;;;11.80;;
10162;SDS011;5123;52.556;13.384;2023-07-29T03:12:44;13.20;;;11.67;;
10162;SDS011;5123;52.556;13.384;2023-07-29T03:15:17;12.43;;;11.13;;
10162;SDS011;5123;52.556;13.384;2023-07-29T03:17:50;12.97;;;11.67;;
10162;SDS011;5123;52.556;13.384;2023-07-29T03:20:23;14.13;;;11.30;;
10162;SDS011;5123;52.556;13.384;2023-07-29T03:22:59;12.93;;;11.53;;
10162;SDS011;5123;52.556;13.384;2023-07-29T03:25:32;12.27;;;11.03;;
10162;SDS011;5123;52.556;13.384;2023-07-29T03:28:06;13.13;;;11.83;;
10162;SDS011;5123;52.556;13.384;2023-07-29T03:30:39;13.43;;;11.40;;
10162;SDS011;5123;52.556;13.384;2023-07-29T03:33:11;12.87;;;11.47;;
10162;SDS011;5123;52.556;13.384;2023-07-29T03:35:44;13.23;;;11.83;;
10162;SDS011;5123;52.556;13.384;2023-07-29T03:38:17;13.50;;;12.20;;
10162;SDS011;5123;52.556;13.384;2023-07-29T03:40:50;15.90;;;13.10;;
10162;SDS011;5123;52.556;13.384;2023-07-29T03:43:24;15.10;;;13.20;;
10162;SDS011;5123;52.556;13.384;2023-07-29T03:45:57;16.07;;;12.57;;
10162;SDS011;5123;52.556;13.384;2023-07-29T03:48:32;14.10;;;12.70;;
10162;SDS011;5123;52.556;13.384;2023-07-29T03:51:07;14.40;;;11.83;;
10162;SDS011;5123;52.556;13.384;2023-07-29T03:53:42;14.83;;;12.93;;
10162;SDS011;5123;52.556;13.384;2023-07-29T03:56:14;13.37;;;11.97;;
10162;SDS011;5123;52.556;13.384;2023-07-29T03:58:48;14.10;;;11.93;;
10162;SDS011;5123;52.556;13.384;2023-07-29T04:01:24;13.97;;;11.77;;
10162;SDS011;5123;52.556;13.384;2023-07-29T04:03:58;15.43;;;13.37;;
10162;SDS011;5123;52.556;13.384;2023-07-29T04:06:31;12.93;;;11.63;;
10162;SDS011;5123;52.556;13.384;2023-07-29T04:09:11;13.73;;;12.27;;
10162;SDS011;5123;52.556;13.384;2023-07-29T04:11:44;13.47;;;11.97;;
10162;SDS011;5123;52.556;13.384;2023-07-29T04:14:18;14.40;;;12.53;;
10162;SDS011;5123;52.556;13.384;2023-07-29T04:16:51;14.50;;;12.90;;
10162;SDS011;5123;52.556;13.384;2023-07-29T04:19:24;14.03;;;12.27;;
10162;SDS011;5123;52.556;13.384;2023-07-29T04:21:58;13.17;;;11.83;;
10162;SDS011;5123;52.556;13.384;2023-07-29T04:24:35;13.53;;;12.13;;
10162;SDS011;5123;52.556;13.384;2023-07-29T04:27:09;13.43;;;12.13;;
10162;SDS011;5123;52.556;13.384;2023-07-29T04:29:43;13.60;;;11.67;;
10162;SDS011;5123;52.556;13.384;2023-07-29T04:32:15;14.60;;;12.00;;
10162;SDS011;5123;52.556;13.384;2023-07-29T04:34:48;13.10;;;11.77;;
10162;SDS011;5123;52.556;13.384;2023-07-29T04:37:21;13.60;;;11.83;;
10162;SDS011;5123;52.556;13.384;2023-07-29T04:39:53;12.13;;;11.03;;
10162;SDS011;5123;52.556;13.384;2023-07-29T04:42:26;13.00;;;11.70;;
10162;SDS011;5123;52.556;13.384;2023-07-29T04:45:01;12.33;;;11.13;;
10162;SDS011;5123;52.556;13.384;2023-07-29T04:47:33;12.70;;;11.07;;
10162;SDS011;5123;52.556;13.384;2023-07-29T04:50:06;13.47;;;11.00;;
10162;SDS011;5123;52.556;13.384;2023-07-29T04:52:40;12.03;;;10.60;;
10162;SDS011;5123;52.556;13.384;2023-07-29T04:55:13;11.43;;;10.43;;
10162;SDS011;5123;52.556;13.384;2023-07-29T04:57:45;11.27;;;10.17;;
10162;SDS011;5123;52.556;13.384;2023-07-29T05:00:20;12.00;;;10.73;;
10162;SDS011;5123;52.556;13.384;2023-07-29T05:02:52;11.60;;;10.40;;
10162;SDS011;5123;52.556;13.384;2023-07-29T05:05:25;10.43;;;9.33;;
10162;SDS011;5123;52.556;13.384;2023-07-29T05:07:58;10.67;;;9.57;;
10162;SDS011;5123;52.556;13.384;2023-07-29T05:10:31;12.10;;;10.03;;
10162;SDS011;5123;52.556;13.384;2023-07-29T05:13:03;10.70;;;9.43;;
10162;SDS011;5123;52.556;13.384;2023-07-29T05:15:40;10.40;;;9.40;;
10162;SDS011;5123;52.556;13.384;2023-07-29T05:18:26;10.63;;;9.53;;
10162;SDS011;5123;52.556;13.384;2023-07-29T05:20:59;8.80;;;7.90;;
10162;SDS011;5123;52.556;13.384;2023-07-29T05:23:34;10.33;;;8.90;;
10162;SDS011;5123;52.556;13.384;2023-07-29T05:26:07;10.03;;;9.17;;
10162;SDS011;5123;52.556;13.384;2023-07-29T05:28:40;9.27;;;8.47;;
10162;SDS011;5123;52.556;13.384;2023-07-29T05:31:17;9.00;;;8.20;;
10162;SDS011;5123;52.556;13.384;2023-07-29T05:33:52;8.47;;;7.53;;
10162;SDS011;5123;52.556;13.384;2023-07-29T05:36:28;8.30;;;7.37;;
10162;SDS011;5123;52.556;13.384;2023-07-29T05:39:04;8.10;;;7.30;;
10162;SDS011;5123;52.556;13.384;2023-07-29T05:41:36;8.23;;;7.27;;
10162;SDS011;5123;52.556;13.384;2023-07-29T05:44:09;8.30;;;7.50;;
10162;SDS011;5123;52.556;13.384;2023-07-29T05:46:43;8.27;;;7.50;;
10162;SDS011;5123;52.556;13.384;2023-07-29T05:49:15;8.67;;;7.53;;
10162;SDS011;5123;52.556;13.384;2023-07-29T05:51:48;8.30;;;7.30;;
10162;SDS011;5123;52.556;13.384;2023-07-29T05:54:21;8.30;;;7.47;;
10162;SDS011;5123;52.556;13.384;2023-07-29T05:56:54;9.00;;;8.10;;
10162;SDS011;5123;52.556;13.384;2023-07-29T05:59:26;9.30;;;8.40;;
10162;SDS011;5123;52.556;13.384;2023-07-29T06:02:02;9.57;;;8.67;;
10162;SDS011;5123;52.556;13.384;2023-07-29T06:04:35;9.70;;;8.70;;
10162;SDS011;5123;52.556;13.384;2023-07-29T06:07:08;8.27;;;7.57;;
10162;SDS011;5123;52.556;13.384;2023-07-29T06:09:49;8.77;;;7.97;;
10162;SDS011;5123;52.556;13.384;2023-07-29T06:12:23;8.90;;;8.00;;
10162;SDS011;5123;52.556;13.384;2023-07-29T06:14:55;9.13;;;8.20;;
10162;SDS011;5123;52.556;13.384;2023-07-29T06:17:31;8.63;;;7.80;;
10162;SDS011;5123;52.556;13.384;2023-07-29T06:20:04;8.60;;;7.43;;
10162;SDS011;5123;52.556;13.384;2023-07-29T06:22:37;8.80;;;7.87;;
10162;SDS011;5123;52.556;13.384;2023-07-29T06:25:10;9.17;;;7.97;;
10162;SDS011;5123;52.556;13.384;2023-07-29T06:27:42;7.90;;;7.10;;
10162;SDS011;5123;52.556;13.384;2023-07-29T06:30:17;8.53;;;7.70;;
10162;SDS011;5123;52.556;13.384;2023-07-29T06:32:51;7.40;;;6.63;;
10162;SDS011;5123;52.556;13.384;2023-07-29T06:35:24;9.87;;;7.40;;
10162;SDS011;5123;52.556;13.384;2023-07-29T06:37:57;7.83;;;7.13;;
10162;SDS011;5123;52.556;13.384;2023-07-29T06:40:30;7.57;;;6.70;;
10162;SDS011;5123;52.556;13.384;2023-07-29T06:43:02;7.00;;;6.30;;
10162;SDS011;5123;52.556;13.384;2023-07-29T06:45:35;8.30;;;6.77;;
10162;SDS011;5123;52.556;13.384;2023-07-29T06:48:09;8.23;;;7.47;;
10162;SDS011;5123;52.556;13.384;2023-07-29T06:50:42;7.60;;;6.90;;
10162;SDS011;5123;52.556;13.384;2023-07-29T06:53:15;9.10;;;7.03;;
10162;SDS011;5123;52.556;13.384;2023-07-29T06:55:48;7.07;;;6.47;;
10162;SDS011;5123;52.556;13.384;2023-07-29T06:58:20;7.00;;;6.40;;
10162;SDS011;5123;52.556;13.384;2023-07-29T07:00:53;6.70;;;6.10;;
10162;SDS011;5123;52.556;13.384;2023-07-29T07:03:29;6.63;;;5.60;;
10162;SDS011;5123;52.556;13.384;2023-07-29T07:06:02;7.37;;;6.70;;
10162;SDS011;5123;52.556;13.384;2023-07-29T07:08:36;6.83;;;6.20;;
10162;SDS011;5123;52.556;13.384;2023-07-29T07:11:09;6.00;;;5.50;;
10162;SDS011;5123;52.556;13.384;2023-07-29T07:13:42;7.00;;;6.30;;
10162;SDS011;5123;52.556;13.384;2023-07-29T07:16:15;7.00;;;6.40;;
10162;SDS011;5123;52.556;13.384;2023-07-29T07:18:49;6.47;;;5.87;;
10162;SDS011;5123;52.556;13.384;2023-07-29T07:21:23;7.93;;;7.13;;
10162;SDS011;5123;52.556;13.384;2023-07-29T07:23:56;7.20;;;6.60;;
10162;SDS011;5123;52.556;13.384;2023-07-29T07:26:29;7.67;;;6.67;;
10162;SDS011;5123;52.556;13.384;2023-07-29T07:29:02;9.73;;;8.10;;
10162;SDS011;5123;52.556;13.384;2023-07-29T07:31:37;8.73;;;7.93;;
10162;SDS011;5123;52.556;13.384;2023-07-29T07:34:12;9.53;;;8.70;;
10162;SDS011;5123;52.556;13.384;2023-07-29T07:36:47;11.23;;;9.60;;
10162;SDS011;5123;52.556;13.384;2023-07-29T07:39:20;10.17;;;9.27;;
10162;SDS011;5123;52.556;13.384;2023-07-29T07:41:52;10.17;;;9.37;;
10162;SDS011;5123;52.556;13.384;2023-07-29T07:44:25;9.57;;;8.77;;
10162;SDS011;5123;52.556;13.384;2023-07-29T07:46:58;9.20;;;8.50;;
10162;SDS011;5123;52.556;13.384;2023-07-29T07:49:36;9.17;;;8.47;;
10162;SDS011;5123;52.556;13.384;2023-07-29T07:52:09;9.13;;;8.23;;
10162;SDS011;5123;52.556;13.384;2023-07-29T07:54:42;9.63;;;8.77;;
10162;SDS011;5123;52.556;13.384;2023-07-29T07:57:15;9.63;;;8.73;;
10162;SDS011;5123;52.556;13.384;2023-07-29T07:59:47;8.40;;;7.70;;
10162;SDS011;5123;52.556;13.384;2023-07-29T08:02:20;9.73;;;8.93;;
10162;SDS011;5123;52.556;13.384;2023-07-29T08:04:55;9.97;;;9.17;;
10162;SDS011;5123;52.556;13.384;2023-07-29T08:07:27;10.13;;;8.47;;
10162;SDS011;5123;52.556;13.384;2023-07-29T08:10:00;9.50;;;8.73;;
10162;SDS011;5123;52.556;13.384;2023-07-29T08:12:33;7.80;;;7.20;;
10162;SDS011;5123;52.556;13.384;2023-07-29T08:15:06;7.93;;;7.27;;
10162;SDS011;5123;52.556;13.384;2023-07-29T08:17:39;7.00;;;6.40;;
10162;SDS011;5123;52.556;13.384;2023-07-29T08:20:13;6.93;;;6.43;;
10162;SDS011;5123;52.556;13.384;2023-07-29T08:22:46;7.10;;;6.50;;
10162;SDS011;5123;52.556;13.384;2023-07-29T08:25:18;6.03;;;5.40;;
10162;SDS011;5123;52.556;13.384;2023-07-29T08:27:51;6.30;;;5.80;;
10162;SDS011;5123;52.556;13.384;2023-07-29T08:30:24;6.33;;;5.80;;
10162;SDS011;5123;52.556;13.384;2023-07-29T08:32:57;5.80;;;5.30;;
10162;SDS011;5123;52.556;13.384;2023-07-29T08:35:31;5.73;;;5.13;;
10162;SDS011;5123;52.556;13.384;2023-07-29T08:38:04;6.17;;;5.57;;
10162;SDS011;5123;52.556;13.384;2023-07-29T08:40:37;5.10;;;4.70;;
10162;SDS011;5123;52.556;13.384;2023-07-29T08:43:10;5.37;;;4.87;;
10162;SDS011;5123;52.556;13.384;2023-07-29T08:45:45;5.40;;;4.90;;
10162;SDS011;5123;52.556;13.384;2023-07-29T08:48:19;5.23;;;4.70;;
10162;SDS011;5123;52.556;13.384;2023-07-29T08:50:57;4.83;;;4.43;;
10162;SDS011;5123;52.556;13.384;2023-07-29T08:53:31;5.33;;;4.40;;
10162;SDS011;5123;52.556;13.384;2023-07-29T08:56:04;5.20;;;4.80;;
10162;SDS011;5123;52.556;13.384;2023-07-29T08:58:39;5.20;;;4.80;;
10162;SDS011;5123;52.556;13.384;2023-07-29T09:01:11;5.00;;;4.60;;
10162;SDS011;5123;52.556;13.384;2023-07-29T09:03:44;4.70;;;4.30;;
10162;SDS011;5123;52.556;13.384;2023-07-29T09:06:18;4.60;;;4.20;;
10162;SDS011;5123;52.556;13.384;2023-07-29T09:08:53;5.00;;;4.50;;
10162;SDS011;5123;52.556;13.384;2023-07-29T09:11:27;5.50;;;5.10;;
10162;SDS011;5123;52.556;13.384;2023-07-29T09:14:09;4.33;;;4.03;;
10162;SDS011;5123;52.556;13.384;2023-07-29T09:16:42;5.90;;;4.37;;
10162;SDS011;5123;52.556;13.384;2023-07-29T09:19:14;7.07;;;4.93;;
10162;SDS011;5123;52.556;13.384;2023-07-29T09:21:49;4.43;;;3.93;;
10162;SDS011;5123;52.556;13.384;2023-07-29T09:24:25;4.27;;;3.87;;
10162;SDS011;5123;52.556;13.384;2023-07-29T09:27:01;4.97;;;4.40;;
10162;SDS011;5123;52.556;13.384;2023-07-29T09:29:35;4.30;;;4.00;;
10162;SDS011;5123;52.556;13.384;2023-07-29T09:32:17;4.20;;;3.90;;
10162;SDS011;5123;52.556;13.384;2023-07-29T09:34:50;4.20;;;3.90;;
10162;SDS011;5123;52.556;13.384;2023-07-29T09:37:25;4.53;;;4.17;;
10162;SDS011;5123;52.556;13.384;2023-07-29T09:39:57;4.03;;;3.30;;
10162;SDS011;5123;52.556;13.384;2023-07-29T09:42:31;4.27;;;3.93;;
10162;SDS011;5123;52.556;13.384;2023-07-29T09:45:04;3.67;;;3.37;;
10162;SDS011;5123;52.556;13.384;2023-07-29T09:47:37;4.05;;;3.78;;
10162;SDS011;5123;52.556;13.384;2023-07-29T09:50:15;4.18;;;3.78;;
10162;SDS011;5123;52.556;13.384;2023-07-29T09:52:49;4.45;;;4.05;;
10162;SDS011;5123;52.556;13.384;2023-07-29T09:55:22;4.13;;;3.83;;
10162;SDS011;5123;52.556;13.384;2023-07-29T09:57:56;5.40;;;3.95;;
10162;SDS011;5123;52.556;13.384;2023-07-29T10:00:29;4.43;;;4.13;;
10162;SDS011;5123;52.556;13.384;2023-07-29T10:03:02;3.88;;;3.58;;
10162;SDS011;5123;52.556;13.384;2023-07-29T10:05:35;4.15;;;3.85;;
10162;SDS011;5123;52.556;13.384;2023-07-29T10:08:11;4.73;;;3.50;;
10162;SDS011;5123;52.556;13.384;2023-07-29T10:10:45;4.07;;;3.40;;
10162;SDS011;5123;52.556;13.384;2023-07-29T10:13:18;3.80;;;3.50;;
10162;SDS011;5123;52.556;13.384;2023-07-29T10:15:51;3.58;;;3.28;;
10162;SDS011;5123;52.556;13.384;2023-07-29T10:18:24;3.65;;;3.40;;
10162;SDS011;5123;52.556;13.384;2023-07-29T10:20:57;4.28;;;3.95;;
10162;SDS011;5123;52.556;13.384;2023-07-29T10:23:36;3.55;;;3.25;;
10162;SDS011;5123;52.556;13.384;2023-07-29T10:26:10;3.65;;;3.22;;
10162;SDS011;5123;52.556;13.384;2023-07-29T10:28:47;3.80;;;3.50;;
10162;SDS011;5123;52.556;13.384;2023-07-29T10:31:20;6.50;;;3.70;;
10162;SDS011;5123;52.556;13.384;2023-07-29T10:33:54;5.73;;;3.97;;
10162;SDS011;5123;52.556;13.384;2023-07-29T10:36:27;3.95;;;3.63;;
10162;SDS011;5123;52.556;13.384;2023-07-29T10:39:09;5.25;;;4.32;;
10162;SDS011;5123;52.556;13.384;2023-07-29T10:41:57;4.18;;;3.78;;
10162;SDS011;5123;52.556;13.384;2023-07-29T10:44:45;2.95;;;2.65;;
10162;SDS011;5123;52.556;13.384;2023-07-29T10:47:23;3.00;;;2.80;;
10162;SDS011;5123;52.556;13.384;2023-07-29T10:49:59;2.90;;;2.70;;
10162;SDS011;5123;52.556;13.384;2023-07-29T10:52:39;3.40;;;2.70;;
10162;SDS011;5123;52.556;13.384;2023-07-29T10:55:26;3.60;;;3.30;;
10162;SDS011;5123;52.556;13.384;2023-07-29T10:58:05;3.33;;;3.08;;
10162;SDS011;5123;52.556;13.384;2023-07-29T11:00:38;4.38;;;3.33;;
10162;SDS011;5123;52.556;13.384;2023-07-29T11:03:11;3.43;;;3.13;;
10162;SDS011;5123;52.556;13.384;2023-07-29T11:05:47;3.20;;;2.90;;
10162;SDS011;5123;52.556;13.384;2023-07-29T11:08:21;5.00;;;3.40;;
10162;SDS011;5123;52.556;13.384;2023-07-29T11:11:04;3.23;;;3.03;;
10162;SDS011;5123;52.556;13.384;2023-07-29T11:13:38;3.37;;;2.60;;
10162;SDS011;5123;52.556;13.384;2023-07-29T11:16:11;5.23;;;3.83;;
10162;SDS011;5123;52.556;13.384;2023-07-29T11:18:48;2.60;;;2.20;;
10162;SDS011;5123;52.556;13.384;2023-07-29T11:21:23;3.60;;;2.20;;
10162;SDS011;5123;52.556;13.384;2023-07-29T11:24:00;2.87;;;1.80;;
10162;SDS011;5123;52.556;13.384;2023-07-29T11:26:38;2.27;;;1.60;;
10162;SDS011;5123;52.556;13.384;2023-07-29T11:29:18;2.80;;;1.70;;
10162;SDS011;5123;52.556;13.384;2023-07-29T11:31:51;2.30;;;1.60;;
10162;SDS011;5123;52.556;13.384;2023-07-29T11:34:30;2.20;;;1.70;;
10162;SDS011;5123;52.556;13.384;2023-07-29T11:37:03;2.53;;;2.03;;
10162;SDS011;5123;52.556;13.384;2023-07-29T11:39:39;1.63;;;1.50;;
10162;SDS011;5123;52.556;13.384;2023-07-29T11:42:22;2.30;;;1.97;;
10162;SDS011;5123;52.556;13.384;2023-07-29T11:44:57;3.30;;;2.90;;
10162;SDS011;5123;52.556;13.384;2023-07-29T11:47:35;2.70;;;2.33;;
10162;SDS011;5123;52.556;13.384;2023-07-29T11:50:09;2.10;;;1.87;;
10162;SDS011;5123;52.556;13.384;2023-07-29T11:52:43;3.13;;;1.60;;
10162;SDS011;5123;52.556;13.384;2023-07-29T11:55:16;7.10;;;5.00;;
10162;SDS011;5123;52.556;13.384;2023-07-29T11:57:51;9.10;;;7.53;;
10162;SDS011;5123;52.556;13.384;2023-07-29T12:00:25;10.20;;;7.37;;
10162;SDS011;5123;52.556;13.384;2023-07-29T12:02:58;8.50;;;6.47;;
10162;SDS011;5123;52.556;13.384;2023-07-29T12:05:31;7.33;;;5.83;;
10162;SDS011;5123;52.556;13.384;2023-07-29T12:08:04;7.33;;;4.50;;
10162;SDS011;5123;52.556;13.384;2023-07-29T12:10:37;5.63;;;3.60;;
10162;SDS011;5123;52.556;13.384;2023-07-29T12:13:11;3.30;;;2.50;;
10162;SDS011;5123;52.556;13.384;2023-07-29T12:15:46;4.13;;;2.40;;
10162;SDS011;5123;52.556;13.384;2023-07-29T12:18:29;2.37;;;2.00;;
10162;SDS011;5123;52.556;13.384;2023-07-29T12:21:02;3.27;;;2.23;;
10162;SDS011;5123;52.556;13.384;2023-07-29T12:23:36;3.67;;;1.93;;
10162;SDS011;5123;52.556;13.384;2023-07-29T12:26:09;2.87;;;2.67;;
10162;SDS011;5123;52.556;13.384;2023-07-29T12:28:46;2.80;;;2.60;;
10162;SDS011;5123;52.556;13.384;2023-07-29T12:31:18;3.17;;;2.70;;
10162;SDS011;5123;52.556;13.384;2023-07-29T12:33:55;4.30;;;2.90;;
10162;SDS011;5123;52.556;13.384;2023-07-29T12:36:39;2.87;;;2.53;;
10162;SDS011;5123;52.556;13.384;2023-07-29T12:39:17;2.40;;;2.20;;
10162;SDS011;5123;52.556;13.384;2023-07-29T12:41:51;2.93;;;2.30;;
10162;SDS011;5123;52.556;13.384;2023-07-29T12:44:26;3.00;;;2.30;;
10162;SDS011;5123;52.556;13.384;2023-07-29T12:47:01;2.27;;;2.10;;
10162;SDS011;5123;52.556;13.384;2023-07-29T12:49:35;3.53;;;2.77;;
10162;SDS011;5123;52.556;13.384;2023-07-29T12:52:08;3.17;;;2.87;;
10162;SDS011;5123;52.556;13.384;2023-07-29T12:54:41;3.20;;;2.90;;
10162;SDS011;5123;52.556;13.384;2023-07-29T12:57:15;3.93;;;3.50;;
10162;SDS011;5123;52.556;13.384;2023-07-29T12:59:50;4.77;;;3.77;;
10162;SDS011;5123;52.556;13.384;2023-07-29T13:02:22;3.73;;;3.43;;
10162;SDS011;5123;52.556;13.384;2023-07-29T13:04:55;3.47;;;3.10;;
10162;SDS011;5123;52.556;13.384;2023-07-29T13:07:28;4.30;;;3.90;;
10162;SDS011;5123;52.556;13.384;2023-07-29T13:10:01;4.10;;;3.73;;
10162;SDS011;5123;52.556;13.384;2023-07-29T13:12:34;3.90;;;3.60;;
10162;SDS011;5123;52.556;13.384;2023-07-29T13:15:08;4.20;;;3.77;;
10162;SDS011;5123;52.556;13.384;2023-07-29T13:17:41;4.33;;;3.97;;
10162;SDS011;5123;52.556;13.384;2023-07-29T13:20:14;4.50;;;4.10;;
10162;SDS011;5123;52.556;13.384;2023-07-29T13:22:47;4.43;;;4.03;;
10162;SDS011;5123;52.556;13.384;2023-07-29T13:25:20;4.63;;;4.23;;
10162;SDS011;5123;52.556;13.384;2023-07-29T13:27:52;5.00;;;4.50;;
10162;SDS011;5123;52.556;13.384;2023-07-29T13:30:27;4.70;;;4.20;;
10162;SDS011;5123;52.556;13.384;2023-07-29T13:33:00;4.10;;;3.70;;
10162;SDS011;5123;52.556;13.384;2023-07-29T13:35:33;3.50;;;3.20;;
10162;SDS011;5123;52.556;13.384;2023-07-29T13:38:09;3.17;;;2.90;;
10162;SDS011;5123;52.556;13.384;2023-07-29T13:40:42;2.93;;;2.73;;
10162;SDS011;5123;52.556;13.384;2023-07-29T13:43:15;3.03;;;2.73;;
10162;SDS011;5123;52.556;13.384;2023-07-29T13:45:49;2.67;;;2.47;;
10162;SDS011;5123;52.556;13.384;2023-07-29T13:48:22;2.97;;;2.40;;
10162;SDS011;5123;52.556;13.384;2023-07-29T13:50:54;2.90;;;2.70;;
10162;SDS011;5123;52.556;13.384;2023-07-29T13:53:27;2.53;;;2.33;;
10162;SDS011;5123;52.556;13.384;2023-07-29T13:56:00;2.10;;;2.00;;
10162;SDS011;5123;52.556;13.384;2023-07-29T13:58:33;2.10;;;2.00;;
10162;SDS011;5123;52.556;13.384;2023-07-29T14:01:07;2.10;;;1.87;;
10162;SDS011;5123;52.556;13.384;2023-07-29T14:03:39;2.20;;;2.00;;
10162;SDS011;5123;52.556;13.384;2023-07-29T14:06:12;2.50;;;1.90;;
10162;SDS011;5123;52.556;13.384;2023-07-29T14:08:48;2.17;;;1.70;;
10162;SDS011;5123;52.556;13.384;2023-07-29T14:11:21;2.80;;;1.80;;
10162;SDS011;5123;52.556;13.384;2023-07-29T14:13:54;1.70;;;1.60;;
10162;SDS011;5123;52.556;13.384;2023-07-29T14:16:28;1.50;;;1.40;;
10162;SDS011;5123;52.556;13.384;2023-07-29T14:19:00;1.97;;;1.50;;
10162;SDS011;5123;52.556;13.384;2023-07-29T14:21:33;2.67;;;1.53;;
10162;SDS011;5123;52.556;13.384;2023-07-29T14:24:06;1.53;;;1.43;;
10162;SDS011;5123;52.556;13.384;2023-07-29T14:26:41;3.80;;;1.80;;
10162;SDS011;5123;52.556;13.384;2023-07-29T14:29:14;1.50;;;1.40;;
10162;SDS011;5123;52.556;13.384;2023-07-29T14:31:52;4.17;;;1.83;;
10162;SDS011;5123;52.556;13.384;2023-07-29T14:34:25;2.87;;;2.00;;
10162;SDS011;5123;52.556;13.384;2023-07-29T14:37:00;1.70;;;1.60;;
10162;SDS011;5123;52.556;13.384;2023-07-29T14:39:33;1.70;;;1.60;;
10162;SDS011;5123;52.556;13.384;2023-07-29T14:42:06;3.00;;;1.97;;
10162;SDS011;5123;52.556;13.384;2023-07-29T14:44:39;2.10;;;1.80;;
10162;SDS011;5123;52.556;13.384;2023-07-29T14:47:13;1.73;;;1.63;;
10162;SDS011;5123;52.556;13.384;2023-07-29T14:49:46;2.57;;;1.83;;
10162;SDS011;5123;52.556;13.384;2023-07-29T14:52:19;1.93;;;1.60;;
10162;SDS011;5123;52.556;13.384;2023-07-29T14:54:54;1.83;;;1.67;;
10162;SDS011;5123;52.556;13.384;2023-07-29T14:57:26;2.10;;;1.60;;
10162;SDS011;5123;52.556;13.384;2023-07-29T14:59:59;2.90;;;2.00;;
10162;SDS011;5123;52.556;13.384;2023-07-29T15:02:33;2.67;;;2.47;;
10162;SDS011;5123;52.556;13.384;2023-07-29T15:05:08;4.33;;;2.37;;
10162;SDS011;5123;52.556;13.384;2023-07-29T15:07:41;2.20;;;2.00;;
10162;SDS011;5123;52.556;13.384;2023-07-29T15:10:14;3.07;;;2.77;;
10162;SDS011;5123;52.556;13.384;2023-07-29T15:12:47;4.90;;;4.00;;
10162;SDS011;5123;52.556;13.384;2023-07-29T15:15:20;2.30;;;2.10;;
10162;SDS011;5123;52.556;13.384;2023-07-29T15:17:54;4.33;;;2.53;;
10162;SDS011;5123;52.556;13.384;2023-07-29T15:20:28;3.77;;;1.90;;